Map

Track Data

SID SEASON NUMBER BASIN SUBBASIN NAME ISO_TIME NATURE LAT LON WMO_WIND WMO_PRES WMO_AGENCY TRACK_TYPE DIST2LAND LANDFALL IFLAG USA_AGENCY USA_ATCF_ID USA_LAT USA_LON USA_RECORD USA_STATUS USA_WIND USA_PRES USA_SSHS USA_R34_NE USA_R34_SE USA_R34_SW USA_R34_NW USA_R50_NE USA_R50_SE USA_R50_SW USA_R50_NW USA_R64_NE USA_R64_SE USA_R64_SW USA_R64_NW USA_POCI USA_ROCI USA_RMW USA_EYE TOKYO_LAT TOKYO_LON TOKYO_GRADE TOKYO_WIND TOKYO_PRES TOKYO_R50_DIR TOKYO_R50_LONG TOKYO_R50_SHORT TOKYO_R30_DIR TOKYO_R30_LONG TOKYO_R30_SHORT TOKYO_LAND CMA_LAT CMA_LON CMA_CAT CMA_WIND CMA_PRES HKO_LAT HKO_LON HKO_CAT HKO_WIND HKO_PRES NEWDELHI_LAT NEWDELHI_LON NEWDELHI_GRADE NEWDELHI_WIND NEWDELHI_PRES NEWDELHI_CI NEWDELHI_DP NEWDELHI_POCI REUNION_LAT REUNION_LON REUNION_TYPE REUNION_WIND REUNION_PRES REUNION_TNUM REUNION_CI REUNION_RMW REUNION_R34_NE REUNION_R34_SE REUNION_R34_SW REUNION_R34_NW REUNION_R50_NE REUNION_R50_SE REUNION_R50_SW REUNION_R50_NW REUNION_R64_NE REUNION_R64_SE REUNION_R64_SW REUNION_R64_NW BOM_LAT BOM_LON BOM_TYPE BOM_WIND BOM_PRES BOM_TNUM BOM_CI BOM_RMW BOM_R34_NE BOM_R34_SE BOM_R34_SW BOM_R34_NW BOM_R50_NE BOM_R50_SE BOM_R50_SW BOM_R50_NW BOM_R64_NE BOM_R64_SE BOM_R64_SW BOM_R64_NW BOM_ROCI BOM_POCI BOM_EYE BOM_POS_METHOD BOM_PRES_METHOD NADI_LAT NADI_LON NADI_CAT NADI_WIND NADI_PRES WELLINGTON_LAT WELLINGTON_LON WELLINGTON_WIND WELLINGTON_PRES DS824_LAT DS824_LON DS824_STAGE DS824_WIND DS824_PRES TD9636_LAT TD9636_LON TD9636_STAGE TD9636_WIND TD9636_PRES TD9635_LAT TD9635_LON TD9635_WIND TD9635_PRES TD9635_ROCI NEUMANN_LAT NEUMANN_LON NEUMANN_CLASS NEUMANN_WIND NEUMANN_PRES MLC_LAT MLC_LON MLC_CLASS MLC_WIND MLC_PRES USA_GUST BOM_GUST BOM_GUST_PER REUNION_GUST REUNION_GUST_PER USA_SEAHGT USA_SEARAD_NE USA_SEARAD_SE USA_SEARAD_SW USA_SEARAD_NW STORM_SPEED STORM_DIR
1998201S05086 1999 38 SI MM NOT_NAMED 1998-07-20 00:00:00 TS -4.80000 85.7000 main 1326 1326 O___________O_ jtwc_sh SH011999 -4.80000 85.7000 25 -1 -4.80000 85.7000 TC 25 7 223
1998201S05086 1999 38 SI MM NOT_NAMED 1998-07-20 03:00:00 TS -5.06001 85.4600 main 1347 1343 P___________P_ SH011999 -5.06001 85.4600 25 -1 -5.06001 85.4600 TC 25 7 225
1998201S05086 1999 38 SI MM NOT_NAMED 1998-07-20 06:00:00 TS -5.30000 85.2000 main 1355 1351 O___________O_ jtwc_sh SH011999 -5.30000 85.2000 25 -1 -5.30000 85.2000 TC 25 7 231
1998201S05086 1999 38 SI MM NOT_NAMED 1998-07-20 09:00:00 TS -5.50749 84.9075 main 1363 1363 P___________P_ SH011999 -5.50749 84.9075 25 -1 -5.50749 84.9075 TC 25 7 236
1998201S05086 1999 38 SI MM NOT_NAMED 1998-07-20 12:00:00 TS -5.70000 84.6000 main 1373 1370 O___________O_ jtwc_sh SH011999 -5.70000 84.6000 25 -1 -5.70000 84.6000 TC 25 7 236
1998201S05086 1999 38 SI MM NOT_NAMED 1998-07-20 15:00:00 TS -5.89994 84.3224 main 1384 1384 P___________P_ SH011999 -5.89994 84.3224 25 -1 -5.89994 84.3224 TC 25 7 236
1998201S05086 1999 38 SI MM NOT_NAMED 1998-07-20 18:00:00 TS -6.10000 84.0000 main 1396 1393 O___________O_ jtwc_sh SH011999 -6.10000 84.0000 25 -1 -6.10000 84.0000 TC 25 8 243
1998201S05086 1999 38 SI MM NOT_NAMED 1998-07-20 21:00:00 TS -6.27753 83.5649 main 1407 1402 P___________P_ SH011999 -6.27753 83.5649 25 -1 -6.27753 83.5649 TC 25 10 246
1998201S05086 1999 38 SI MM NOT_NAMED 1998-07-21 00:00:00 TS -6.50000 83.1000 main 1417 1414 O___________O_ jtwc_sh SH011999 -6.50000 83.1000 25 -1 -6.50000 83.1000 TC 25 10 239
1998201S05086 1999 38 SI MM NOT_NAMED 1998-07-21 03:00:00 TS -6.80500 82.6700 main 1442 1440 P___________P_ SH011999 -6.80500 82.6700 25 -1 -6.80500 82.6700 TC 25 11 229
1998201S05086 1999 38 SI MM NOT_NAMED 1998-07-21 06:00:00 TS -7.20000 82.3000 main 1480 1480 O___________O_ jtwc_sh SH011999 -7.20000 82.3000 25 -1 -7.20000 82.3000 TC 25 11 216
1998201S05086 1999 38 SI MM NOT_NAMED 1998-07-21 09:00:00 TS -7.67743 82.0349 main 1531 1531 P___________P_ SH011999 -7.67743 82.0349 27 -1 -7.67743 82.0349 TC 27 11 206
1998201S05086 1999 38 SI MM NOT_NAMED 1998-07-21 12:00:00 TS -8.20000 81.8000 main 1585 1585 O___________O_ jtwc_sh SH011999 -8.20000 81.8000 30 -1 -8.20000 81.8000 TC 30 12 204
1998201S05086 1999 38 SI MM NOT_NAMED 1998-07-21 15:00:00 TS -8.74487 81.5450 main 1639 1639 P___________P_ SH011999 -8.74487 81.5450 30 -1 -8.74487 81.5450 TC 30 12 211
1998201S05086 1999 38 SI MM NOT_NAMED 1998-07-21 18:00:00 TS -9.20000 81.2000 main 1693 1692 O___________O_ jtwc_sh SH011999 -9.20000 81.2000 30 -1 -9.20000 81.2000 TC 30 11 230
1998201S05086 1999 38 SI MM NOT_NAMED 1998-07-21 21:00:00 TS -9.46762 80.6725 main 1725 1725 P___________P_ SH011999 -9.46762 80.6725 32 -1 -9.46762 80.6725 TC 32 12 250
1998201S05086 1999 38 SI MM NOT_NAMED 1998-07-22 00:00:00 TS -9.60000 80.1000 main 1737 1737 O___________O_ jtwc_sh SH011999 -9.60000 80.1000 35 0 -9.60000 80.1000 TC 35 11 260
1998201S05086 1999 38 SI MM NOT_NAMED 1998-07-22 03:00:00 TS -9.65743 79.6198 main 1751 1751 P___________P_ SH011999 -9.65743 79.6198 35 0 -9.65743 79.6198 TC 35 9 264
1998201S05086 1999 38 SI MM NOT_NAMED 1998-07-22 06:00:00 TS -9.70000 79.2000 main 1754 1754 O___________O_ jtwc_sh SH011999 -9.70000 79.2000 35 0 -9.70000 79.2000 TC 35 8 258
1998201S05086 1999 38 SI MM NOT_NAMED 1998-07-22 09:00:00 TS -9.82745 78.8200 main 1770 1770 P___________P_ SH011999 -9.82745 78.8200 32 -1 -9.82745 78.8200 TC 32 8 246
1998201S05086 1999 38 SI MM NOT_NAMED 1998-07-22 12:00:00 TS -10.0000 78.5000 main 1796 1796 O___________O_ jtwc_sh SH011999 -10.0000 78.5000 30 -1 -10.0000 78.5000 TC 30 7 237
1998201S05086 1999 38 SI MM NOT_NAMED 1998-07-22 15:00:00 TS -10.2074 78.2350 main 1823 1823 P___________P_ SH011999 -10.2074 78.2350 30 -1 -10.2074 78.2350 TC 30 6 231
1998201S05086 1999 38 SI MM NOT_NAMED 1998-07-22 18:00:00 TS -10.4000 78.0000 main 1849 1849 O___________O_ jtwc_sh SH011999 -10.4000 78.0000 30 -1 -10.4000 78.0000 TC 30 6 235
1998201S05086 1999 38 SI MM NOT_NAMED 1998-07-22 21:00:00 TS -10.5375 77.7575 main 1863 1863 P___________P_ SH011999 -10.5375 77.7575 30 -1 -10.5375 77.7575 TC 30 5 248
1998201S05086 1999 38 SI MM NOT_NAMED 1998-07-23 00:00:00 TS -10.6000 77.5000 main 1880 1880 O___________O_ jtwc_sh SH011999 -10.6000 77.5000 30 -1 -10.6000 77.5000 TC 30 6 266
1998201S05086 1999 38 SI MM NOT_NAMED 1998-07-23 03:00:00 TS -10.5800 77.1850 main 1886 1880 P___________P_ SH011999 -10.5800 77.1850 30 -1 -10.5800 77.1850 TC 30 6 280
1998201S05086 1999 38 SI MM NOT_NAMED 1998-07-23 06:00:00 TS -10.5000 76.9000 main 1882 1874 O___________O_ jtwc_sh SH011999 -10.5000 76.9000 30 -1 -10.5000 76.9000 TC 30 5 290
1998201S05086 1999 38 SI MM NOT_NAMED 1998-07-23 09:00:00 TS -10.4150 76.7275 main 1876 1868 P___________P_ SH011999 -10.4150 76.7275 30 -1 -10.4150 76.7275 TC 30 4 304
1998201S05086 1999 38 SI MM NOT_NAMED 1998-07-23 12:00:00 TS -10.3000 76.6000 main 1868 1860 O___________O_ jtwc_sh SH011999 -10.3000 76.6000 30 -1 -10.3000 76.6000 TC 30 4 313
1998201S05086 1999 38 SI MM NOT_NAMED 1998-07-23 15:00:00 TS -10.1575 76.4425 main 1863 1844 P___________P_ SH011999 -10.1575 76.4425 30 -1 -10.1575 76.4425 TC 30 4 316
1998201S05086 1999 38 SI MM NOT_NAMED 1998-07-23 18:00:00 TS -10.0000 76.3000 main 1844 1836 O___________O_ jtwc_sh SH011999 -10.0000 76.3000 30 -1 -10.0000 76.3000 TC 30 4 318
1998201S05086 1999 38 SI MM NOT_NAMED 1998-07-23 21:00:00 TS -9.85750 76.1700 main 1836 1817 P___________P_ SH011999 -9.85750 76.1700 30 -1 -9.85750 76.1700 TC 30 4 327
1998201S05086 1999 38 SI MM NOT_NAMED 1998-07-24 00:00:00 TS -9.70000 76.1000 main 1817 1796 O___________O_ jtwc_sh SH011999 -9.70000 76.1000 30 -1 -9.70000 76.1000 TC 30 4 350
1998201S05086 1999 38 SI MM NOT_NAMED 1998-07-24 03:00:00 TS -9.49999 76.1200 main 1796 1771 P___________P_ SH011999 -9.49999 76.1200 30 -1 -9.49999 76.1200 TC 30 4 13
1998201S05086 1999 38 SI MM NOT_NAMED 1998-07-24 06:00:00 TS -9.30000 76.2000 main 1771 1747 O___________O_ jtwc_sh SH011999 -9.30000 76.2000 30 -1 -9.30000 76.2000 TC 30 4 26
1998201S05086 1999 38 SI MM NOT_NAMED 1998-07-24 09:00:00 TS -9.13501 76.3000 main 1747 1733 P___________P_ SH011999 -9.13501 76.3000 30 -1 -9.13501 76.3000 TC 30 4 33
1998201S05086 1999 38 SI MM NOT_NAMED 1998-07-24 12:00:00 TS -9.00000 76.4000 main 1733 1719 O___________O_ jtwc_sh SH011999 -9.00000 76.4000 30 -1 -9.00000 76.4000 TC 30 3 36
1998201S05086 1999 38 SI MM NOT_NAMED 1998-07-24 15:00:00 TS -8.90000 76.4725 main 1719 1708 P___________P_ SH011999 -8.90000 76.4725 30 -1 -8.90000 76.4725 TC 30 2 27
1998201S05086 1999 38 SI MM NOT_NAMED 1998-07-24 18:00:00 TS -8.80000 76.5000 main 1708 1698 O___________O_ jtwc_sh SH011999 -8.80000 76.5000 30 -1 -8.80000 76.5000 TC 30 2 6
1998201S05086 1999 38 SI MM NOT_NAMED 1998-07-24 21:00:00 TS -8.65748 76.4875 main 1698 1679 P___________P_ SH011999 -8.65748 76.4875 30 -1 -8.65748 76.4875 TC 30 3 343
1998201S05086 1999 38 SI MM NOT_NAMED 1998-07-25 00:00:00 TS -8.50000 76.4000 main 1679 1668 O___________O_ jtwc_sh SH011999 -8.50000 76.4000 30 -1 -8.50000 76.4000 TC 30 4 321
1998201S05086 1999 38 SI MM NOT_NAMED 1998-07-25 03:00:00 TS -8.34250 76.2300 main 1664 1657 P___________P_ SH011999 -8.34250 76.2300 30 -1 -8.34250 76.2300 TC 30 5 307
1998201S05086 1999 38 SI MM NOT_NAMED 1998-07-25 06:00:00 TS -8.20000 76.0000 main 1660 1653 O___________O_ jtwc_sh SH011999 -8.20000 76.0000 30 -1 -8.20000 76.0000 TC 30 5 298
1998201S05086 1999 38 SI MM NOT_NAMED 1998-07-25 09:00:00 TS -8.09998 75.7650 main 1656 1653 P___________P_ SH011999 -8.09998 75.7650 30 -1 -8.09998 75.7650 TC 30 5 292
1998201S05086 1999 38 SI MM NOT_NAMED 1998-07-25 12:00:00 TS -8.00000 75.5000 main 1656 1649 O___________O_ jtwc_sh SH011999 -8.00000 75.5000 30 -1 -8.00000 75.5000 TC 30 6 294
1998201S05086 1999 38 SI MM NOT_NAMED 1998-07-25 15:00:00 TS -7.85749 75.2075 main 1657 1644 P___________P_ SH011999 -7.85749 75.2075 30 -1 -7.85749 75.2075 TC 30 7 297
1998201S05086 1999 38 SI MM NOT_NAMED 1998-07-25 18:00:00 TS -7.70000 74.9000 main 1648 1641 O___________O_ jtwc_sh SH011999 -7.70000 74.9000 30 -1 -7.70000 74.9000 TC 30 7 297
1998201S05086 1999 38 SI MM NOT_NAMED 1998-07-25 21:00:00 TS -7.54998 74.6000 main 1639 1638 P___________P_ SH011999 -7.54998 74.6000 27 -1 -7.54998 74.6000 TC 27 7 297
1998201S05086 1999 38 SI MM NOT_NAMED 1998-07-26 00:00:00 TS -7.40000 74.3000 main 1642 1637 O___________O_ jtwc_sh SH011999 -7.40000 74.3000 25 -1 -7.40000 74.3000 TC 25 7 297
1998201S05086 1999 38 SI MM NOT_NAMED 1998-07-26 03:00:00 TS -7.24249 73.9925 main 1636 1635 P___________P_ SH011999 -7.24249 73.9925 25 -1 -7.24249 73.9925 TC 25 7 297
1998201S05086 1999 38 SI MM NOT_NAMED 1998-07-26 06:00:00 TS -7.10000 73.7000 main 1640 1635 O___________O_ jtwc_sh SH011999 -7.10000 73.7000 25 -1 -7.10000 73.7000 TC 25 6 296
1998201S05086 1999 38 SI MM NOT_NAMED 1998-07-26 09:00:00 TS -6.97747 73.4425 main 1646 1636 P___________P_ SH011999 -6.97747 73.4425 25 -1 -6.97747 73.4425 TC 25 5 292
1998201S05086 1999 38 SI MM NOT_NAMED 1998-07-26 12:00:00 TS -6.90000 73.2000 main 1646 1646 O___________O_ jtwc_sh SH011999 -6.90000 73.2000 25 -1 -6.90000 73.2000 TC 25 5 282
1998201S05086 1999 38 SI MM NOT_NAMED 1998-07-26 15:00:00 TS -6.87749 72.9500 main 1657 1657 P___________P_ SH011999 -6.87749 72.9500 25 -1 -6.87749 72.9500 TC 25 5 270
1998201S05086 1999 38 SI MM NOT_NAMED 1998-07-26 18:00:00 TS -6.90000 72.7000 main 1673 1673 O___________O_ jtwc_sh SH011999 -6.90000 72.7000 25 -1 -6.90000 72.7000 TC 25 5 263
1998201S05086 1999 38 SI MM NOT_NAMED 1998-07-26 21:00:00 TS -6.94249 72.4500 main 1685 1685 P___________P_ SH011999 -6.94249 72.4500 25 -1 -6.94249 72.4500 TC 25 5 259
1998201S05086 1999 38 SI MM NOT_NAMED 1998-07-27 00:00:00 TS -7.00000 72.2000 main 1712 1712 O___________O_ jtwc_sh SH011999 -7.00000 72.2000 25 -1 -7.00000 72.2000 TC 25 5 257
1998201S05086 1999 38 SI MM NOT_NAMED 1998-07-27 03:00:00 TS -7.05253 71.9500 main 1733 1733 P___________P_ SH011999 -7.05253 71.9500 25 -1 -7.05253 71.9500 TC 25 5 259
1998201S05086 1999 38 SI MM NOT_NAMED 1998-07-27 06:00:00 TS -7.10000 71.7000 main 1751 O___________O_ jtwc_sh SH011999 -7.10000 71.7000 25 -1 -7.10000 71.7000 TC 25 5 259

About IBTrACS Database

This database is a web-friendly format of International Best Track Archive for Climate Stewardship (IBTrACS), a global best track data archive curated by NOAA dating back to 1842.

Updated: 2021-12-08